Flight Track Log - Related Links

Times and Time Zones

All times are in EDT time to prevent confusion due to time zone crossing. See the ASQ5025 flight status page for this flight to view local times or setup timezone preferences in your user account.

Time Position Orientation Groundspeed Altitude Reporting Facility
EDT Latitude Longitude Course Direction KTS MPH feet Rate Location/Type
Thu 09:36:11 AM 40.7833 -73.8667 37° Northeast 150 173 1,100  Level New York TRACON
Thu 09:37:05 AM 40.8167 -73.8333 37° Northeast 193 222 3,200 2,526 Climbing New York TRACON
Thu 09:38:05 AM 40.8833 -73.7833 30° Northeast 249 287 5,900 2,450 Climbing New York TRACON
Thu 09:39:05 AM 40.9333 -73.7167 45° Northeast 290 334 8,100 2,192 Climbing New York TRACON
Thu 09:40:52 AM 41.0669 -73.5881 36° Northeast 343 395 12,000 1,940 Climbing Boston Center
Thu 09:41:52 AM 41.1614 -73.5236 27° Northeast 358 412 13,500 1,750 Climbing Boston Center
Thu 09:42:52 AM 41.2622 -73.4425 31° Northeast 406 467 15,500 1,750 Climbing Boston Center
Thu 09:43:52 AM 41.3631 -73.3500 35° Northeast 430 495 17,000 1,450 Climbing Boston Center
Thu 09:44:52 AM 41.4764 -73.2519 33° Northeast 463 533 18,400 1,450 Climbing Boston Center
Thu 09:45:52 AM 41.5769 -73.1617 34° Northeast 481 554 19,900 1,450 Climbing Boston Center
Thu 09:46:52 AM 41.7064 -73.1242 12° North 474 545 21,300 1,400 Climbing Boston Center
Thu 09:47:52 AM 41.8375 -73.1450 353° North 465 535 22,700 1,400 Climbing Boston Center
Thu 09:48:52 AM 41.9750 -73.1661 353° North 470 541 24,100 1,800 Climbing Boston Center
Thu 09:49:52 AM 42.1186 -73.1931 352° North 484 557 26,300 1,450 Climbing Boston Center
Thu 09:50:52 AM 42.2478 -73.2169 352° North 474 545 27,000 350 Climbing Boston Center
Thu 09:51:52 AM 42.3644 -73.2269 356° North 462 532 27,000  Level Boston Center
Thu 09:52:52 AM 42.4872 -73.2508 352° North 457 526 27,000  Level Boston Center
Thu 09:53:52 AM 42.6183 -73.2808 350° North 445 512 27,000  Level Boston Center
Thu 09:54:52 AM 42.7411 -73.3022 353° North 440 506 27,000  Level Boston Center
Thu 09:55:52 AM 42.8347 -73.3178 353° North 440 506 27,000  Level Boston Center
Thu 09:56:52 AM 42.9761 -73.3425 353° North 435 501 27,000  Level Boston Center
Thu 09:57:52 AM 43.1014 -73.3331 North 435 501 27,000 -1,000 Level Boston Center
Thu 09:58:52 AM 43.2264 -73.3178 North 441 507 25,000 -1,500 Descending Boston Center
Thu 09:59:52 AM 43.3494 -73.3053 North 441 507 24,000 -500 Descending Boston Center
Thu 10:00:52 AM 43.4642 -73.2867 North 427 491 24,000  Level Boston Center
Thu 10:01:52 AM 43.5728 -73.2739 North 411 473 24,000 -150 Level Boston Center
Thu 10:02:52 AM 43.6583 -73.2636 North 397 457 23,700 -2,050 Descending Boston Center
Thu 10:03:52 AM 43.7792 -73.2453 North 389 448 19,900 -3,850 Descending Boston Center
Thu 10:04:52 AM 43.9003 -73.2294 North 396 456 16,000 -3,700 Descending Boston Center
Thu 10:05:52 AM 44.0003 -73.2192 North 376 433 12,500 -2,750 Descending Boston Center
Thu 10:06:52 AM 44.0858 -73.1917 13° North 333 383 10,500 -2,200 Descending Boston Center
Thu 10:07:52 AM 44.1428 -73.1083 46° Northeast 292 336 8,100 -2,000 Descending Boston Center
Thu 10:08:52 AM 44.2075 -73.0772 19° North 254 292 6,500 -1,600 Descending Boston Center
Thu 10:09:52 AM 44.2658 -73.0664 North 220 253 4,900 -1,450 Descending Boston Center
Thu 10:10:52 AM 44.3222 -73.0553 North 214 246 3,600 -1,100 Descending Boston Center
Thu 10:11:52 AM 44.3783 -73.0500 North 209 241 2,700 -850 Descending Boston Center
Thu 10:12:52 AM 44.4158 -73.0650 344° North 164 189 1,900 -750 Descending Boston Center
Thu 10:13:52 AM 44.4367 -73.1000 310° West 128 147 1,200 -650 Descending Boston Center
Thu 10:14:52 AM 44.4592 -73.1353 312° West 123 142 600 -450 Descending Boston Center
Thu 10:15:52 AM 44.4839 -73.1761 310° West 123 142 300 -300 Descending Boston Center
Thu 10:20:00 AM 44.4719 -73.1533 125° Southeast  Level Estimated

Login

Don't have an account? Register now (free) for customized features, flight alerts, and more!